createdAt,value
2022-08-26T00:01:59.271Z,98120.46
2022-08-26T00:05:04.071Z,98121.65
2022-08-26T00:08:08.453Z,98118.38
2022-08-26T00:11:15.967Z,98112.23
2022-08-26T00:14:30.880Z,98109.77
2022-08-26T00:17:34.572Z,98108.36
2022-08-26T00:20:37.578Z,98109.98
2022-08-26T00:23:41.619Z,98106.70
2022-08-26T00:26:44.773Z,98105.77
2022-08-26T00:29:47.668Z,98103.69
2022-08-26T00:32:51.245Z,98101.27
2022-08-26T00:35:55.377Z,98105.66
2022-08-26T00:38:58.837Z,98107.58
2022-08-26T00:42:01.967Z,98106.63
2022-08-26T00:45:11.630Z,98109.11
2022-08-26T00:48:17.949Z,98111.60
2022-08-26T00:51:29.806Z,98111.91
2022-08-26T00:54:42.261Z,98111.11
2022-08-26T00:57:47.776Z,98112.92
2022-08-26T01:00:52.470Z,98112.88
2022-08-26T01:03:56.141Z,98110.46
2022-08-26T01:07:00.011Z,98109.48
2022-08-26T01:10:08.385Z,98111.50
2022-08-26T01:13:13.193Z,98110.96
2022-08-26T01:16:17.106Z,98111.89
2022-08-26T01:19:32.401Z,98109.55
2022-08-26T01:22:55.431Z,98111.30
2022-08-26T01:26:03.129Z,98113.47
2022-08-26T01:29:23.842Z,98109.81
2022-08-26T01:32:28.403Z,98107.14
2022-08-26T01:35:31.340Z,98104.85
2022-08-26T01:38:34.974Z,98105.85
2022-08-26T01:41:40.643Z,98109.60
2022-08-26T01:44:52.269Z,98111.63
2022-08-26T01:47:58.580Z,98109.91
2022-08-26T01:51:05.737Z,98105.84
2022-08-26T01:54:12.091Z,98107.75
2022-08-26T01:57:21.980Z,98102.61
2022-08-26T02:00:26.761Z,98102.64
2022-08-26T02:03:30.984Z,98101.86
2022-08-26T02:06:38.733Z,98097.77
2022-08-26T02:09:43.512Z,98100.14
2022-08-26T02:12:46.540Z,98097.20
2022-08-26T02:15:49.870Z,98101.08
2022-08-26T02:18:53.889Z,98100.34
2022-08-26T02:22:07.072Z,98098.08
2022-08-26T02:25:28.175Z,98091.65
2022-08-26T02:28:47.112Z,98091.63
2022-08-26T02:31:51.938Z,98092.83
2022-08-26T02:34:54.904Z,98090.06
2022-08-26T02:37:58.314Z,98090.54
2022-08-26T02:41:02.129Z,98092.79
2022-08-26T02:44:07.208Z,98089.72
2022-08-26T02:47:13.247Z,98084.48
2022-08-26T02:50:16.211Z,98080.97
2022-08-26T02:53:25.087Z,98081.77
2022-08-26T02:56:29.406Z,98079.76
2022-08-26T02:59:33.459Z,98079.35
2022-08-26T03:02:36.599Z,98076.81
2022-08-26T03:05:40.179Z,98075.84
2022-08-26T03:08:43.241Z,98076.21
2022-08-26T03:11:47.283Z,98080.09
2022-08-26T03:14:50.238Z,98080.31
2022-08-26T03:17:54.646Z,98074.09
2022-08-26T03:21:17.599Z,98077.78
2022-08-26T03:24:21.279Z,98080.27
2022-08-26T03:27:24.313Z,98082.64
2022-08-26T03:30:39.961Z,98077.64
2022-08-26T03:33:48.541Z,98075.80
2022-08-26T03:36:57.679Z,98079.42
2022-08-26T03:40:01.721Z,98070.98
2022-08-26T03:43:06.764Z,98070.92
2022-08-26T03:46:20.649Z,98069.02
2022-08-26T03:49:24.230Z,98064.25
2022-08-26T03:52:27.138Z,98062.48
2022-08-26T03:55:32.513Z,98062.98
2022-08-26T03:58:37.362Z,98062.81
2022-08-26T04:01:40.911Z,98061.73
2022-08-26T04:04:43.864Z,98061.85
2022-08-26T04:07:48.521Z,98061.90
2022-08-26T04:10:51.604Z,98061.88
2022-08-26T04:13:54.580Z,98062.33
2022-08-26T04:16:57.492Z,98057.38
2022-08-26T04:20:00.688Z,98052.93
2022-08-26T04:23:04.461Z,98055.27
2022-08-26T04:26:08.760Z,98052.52
2022-08-26T04:29:18.961Z,98055.20
2022-08-26T04:32:22.224Z,98054.67
2022-08-26T04:35:26.249Z,98058.13
2022-08-26T04:38:30.390Z,98060.39
2022-08-26T04:41:33.686Z,98062.88
2022-08-26T04:44:37.709Z,98064.46
2022-08-26T04:47:40.623Z,98061.08
2022-08-26T04:50:43.715Z,98061.80
2022-08-26T04:53:47.025Z,98060.49
2022-08-26T04:56:50.811Z,98056.83
2022-08-26T04:59:54.207Z,98056.36
2022-08-26T05:02:57.502Z,98055.75
2022-08-26T05:06:05.523Z,98054.92
2022-08-26T05:09:08.577Z,98055.50
2022-08-26T05:12:11.604Z,98051.81
2022-08-26T05:15:14.566Z,98051.39
2022-08-26T05:18:21.349Z,98055.99
2022-08-26T05:21:29.164Z,98056.80
2022-08-26T05:24:32.108Z,98056.34
2022-08-26T05:27:35.064Z,98059.16
2022-08-26T05:30:38.870Z,98059.83
2022-08-26T05:33:43.471Z,98054.48
2022-08-26T05:36:46.684Z,98052.41
2022-08-26T05:39:51.155Z,98047.45
2022-08-26T05:42:55.124Z,98047.86
2022-08-26T05:46:06.625Z,98043.46
2022-08-26T05:49:12.651Z,98047.80
2022-08-26T05:52:15.957Z,98045.52
2022-08-26T05:55:20.321Z,98044.65
2022-08-26T05:58:24.193Z,98044.59
2022-08-26T06:01:30.101Z,98044.21
2022-08-26T06:04:33.084Z,98046.95
2022-08-26T06:07:54.841Z,98047.19
2022-08-26T06:11:02.474Z,98043.88
2022-08-26T06:14:07.905Z,98047.95
2022-08-26T06:17:11.239Z,98043.64
2022-08-26T06:20:16.159Z,98045.07
2022-08-26T06:23:39.273Z,98048.84
2022-08-26T06:26:50.377Z,98044.87
2022-08-26T06:29:54.836Z,98045.76
2022-08-26T06:32:57.797Z,98046.73
2022-08-26T06:36:01.560Z,98052.95
2022-08-26T06:39:10.358Z,98052.29
2022-08-26T06:42:13.523Z,98050.83
2022-08-26T06:45:17.859Z,98051.75
2022-08-26T06:48:21.623Z,98052.29
2022-08-26T06:51:28.329Z,98054.15
2022-08-26T06:54:31.895Z,98053.85
2022-08-26T06:57:37.677Z,98055.13
2022-08-26T07:00:47.173Z,98057.78
2022-08-26T07:03:52.544Z,98059.69
2022-08-26T07:06:57.674Z,98061.05
2022-08-26T07:10:00.647Z,98065.97
2022-08-26T07:13:05.834Z,98065.17
2022-08-26T07:16:13.613Z,98066.98
2022-08-26T07:19:30.209Z,98066.89
2022-08-26T07:22:37.218Z,98065.88
2022-08-26T07:25:42.027Z,98068.65
2022-08-26T07:28:46.579Z,98068.34
2022-08-26T07:31:49.762Z,98066.77
2022-08-26T07:34:52.897Z,98065.23
2022-08-26T07:37:57.174Z,98063.11
2022-08-26T07:41:01.902Z,98064.58
2022-08-26T07:44:05.338Z,98064.93
2022-08-26T07:47:24.727Z,98065.11
2022-08-26T07:50:49.497Z,98064.27
2022-08-26T07:53:54.359Z,98061.19
2022-08-26T07:56:58.251Z,98058.66
2022-08-26T08:00:02.289Z,98064.73
2022-08-26T08:03:15.262Z,98060.82
2022-08-26T08:06:19.833Z,98063.78
2022-08-26T08:09:24.677Z,98062.34
2022-08-26T08:12:27.768Z,98059.98
2022-08-26T08:15:33.157Z,98060.83
2022-08-26T08:18:38.565Z,98055.77
2022-08-26T08:21:44.019Z,98055.84
2022-08-26T08:24:49.975Z,98052.14
2022-08-26T08:27:55.928Z,98049.02
2022-08-26T08:31:00.778Z,98046.87
2022-08-26T08:34:04.322Z,98043.91
2022-08-26T08:37:10.654Z,98042.23
2022-08-26T08:40:19.004Z,98041.73
2022-08-26T08:43:37.698Z,98040.52
2022-08-26T08:46:42.691Z,98040.27
2022-08-26T08:49:46.655Z,98039.45
2022-08-26T08:53:02.462Z,98033.54
2022-08-26T08:56:08.483Z,98034.32
2022-08-26T08:59:20.416Z,98032.16
2022-08-26T09:02:32.198Z,98028.88
2022-08-26T09:05:45.440Z,98028.05
2022-08-26T09:08:52.554Z,98029.40
2022-08-26T09:11:56.565Z,98024.60
2022-08-26T09:15:30.200Z,98027.09
2022-08-26T09:19:08.243Z,98023.91
2022-08-26T09:22:28.313Z,98022.44
2022-08-26T09:25:31.338Z,98023.08
2022-08-26T09:28:34.271Z,98022.77
2022-08-26T09:31:42.297Z,98026.67
2022-08-26T09:34:57.342Z,98015.98
2022-08-26T09:38:00.530Z,98016.34
2022-08-26T09:41:08.373Z,98015.73
2022-08-26T09:44:14.740Z,98013.73
2022-08-26T09:47:32.490Z,98018.59
2022-08-26T09:50:58.074Z,98013.90
2022-08-26T09:54:03.033Z,98010.03
2022-08-26T09:57:24.258Z,98009.27
2022-08-26T10:00:35.052Z,98007.56
2022-08-26T10:03:43.064Z,97998.92
2022-08-26T10:07:01.822Z,97996.58
2022-08-26T10:10:09.344Z,97999.63
2022-08-26T10:13:17.737Z,97997.77
2022-08-26T10:16:46.293Z,97997.70
2022-08-26T10:19:56.470Z,97999.33
2022-08-26T10:23:16.391Z,97996.91
2022-08-26T10:26:46.118Z,97993.04
2022-08-26T10:30:03.989Z,97990.07
2022-08-26T10:33:10.664Z,97985.00
2022-08-26T10:36:52.365Z,97985.71
2022-08-26T10:40:13.280Z,97985.27
2022-08-26T10:43:25.651Z,97981.45
2022-08-26T10:46:39.791Z,97982.98
2022-08-26T10:49:47.212Z,97975.88
2022-08-26T10:53:00.569Z,97979.40
2022-08-26T10:56:26.059Z,97978.42
2022-08-26T11:00:24.494Z,97974.08
2022-08-26T11:03:57.854Z,97972.80
2022-08-26T11:07:28.643Z,97968.89
2022-08-26T11:10:54.941Z,97962.42
2022-08-26T11:14:18.018Z,97961.23
2022-08-26T11:17:46.981Z,97957.58
2022-08-26T11:20:49.954Z,97961.30
2022-08-26T11:23:53.968Z,97958.85
2022-08-26T11:26:57.480Z,97956.50
2022-08-26T11:30:06.757Z,97954.33
2022-08-26T11:33:31.424Z,97955.27
2022-08-26T11:36:35.181Z,97949.96
2022-08-26T11:39:55.323Z,97947.49
2022-08-26T11:43:07.064Z,97942.73
2022-08-26T11:46:13.019Z,97937.58
2022-08-26T11:49:17.419Z,97939.52
2022-08-26T11:52:22.281Z,97938.23
2022-08-26T11:55:25.429Z,97932.67
2022-08-26T11:58:30.130Z,97930.62
2022-08-26T12:01:36.314Z,97928.04
2022-08-26T12:04:43.396Z,97928.07
2022-08-26T12:07:50.902Z,97924.23
2022-08-26T12:11:12.139Z,97917.04
2022-08-26T12:14:24.631Z,97914.52
2022-08-26T12:17:28.359Z,97913.05
2022-08-26T12:20:48.318Z,97910.90
2022-08-26T12:23:54.773Z,97907.02
2022-08-26T12:27:23.749Z,97903.60
2022-08-26T12:30:26.777Z,97904.61
2022-08-26T12:33:31.071Z,97906.44
2022-08-26T12:36:39.351Z,97906.85
2022-08-26T12:39:44.852Z,97902.30
2022-08-26T12:42:47.859Z,97900.48
2022-08-26T12:45:58.206Z,97901.87
2022-08-26T12:49:01.920Z,97900.27
2022-08-26T12:52:29.979Z,97895.13
2022-08-26T12:55:33.047Z,97896.02
2022-08-26T12:58:39.934Z,97892.36
2022-08-26T13:01:44.643Z,97889.17
2022-08-26T13:04:48.821Z,97889.55
2022-08-26T13:08:12.386Z,97889.27
2022-08-26T13:11:20.804Z,97889.25
2022-08-26T13:14:24.797Z,97885.11
2022-08-26T13:17:29.808Z,97881.34
2022-08-26T13:20:33.023Z,97879.05
2022-08-26T13:23:40.619Z,97876.23
2022-08-26T13:26:49.606Z,97874.60
2022-08-26T13:29:54.033Z,97870.98
2022-08-26T13:33:00.622Z,97867.69
2022-08-26T13:36:05.882Z,97867.85
2022-08-26T13:39:08.909Z,97865.06
2022-08-26T13:42:11.951Z,97866.46
2022-08-26T13:45:15.208Z,97861.15
2022-08-26T13:48:22.857Z,97863.52
2022-08-26T13:51:27.812Z,97861.64
2022-08-26T13:54:38.496Z,97860.85
2022-08-26T13:57:44.760Z,97856.67
2022-08-26T14:00:48.243Z,97853.43
2022-08-26T14:03:51.882Z,97853.52
2022-08-26T14:06:55.854Z,97852.12
2022-08-26T14:10:02.993Z,97853.63
2022-08-26T14:13:06.391Z,97852.69
2022-08-26T14:16:22.916Z,97847.27
2022-08-26T14:19:25.995Z,97841.88
2022-08-26T14:22:29.092Z,97840.56
2022-08-26T14:25:33.704Z,97844.73
2022-08-26T14:28:37.945Z,97845.81
2022-08-26T14:31:41.081Z,97840.73
2022-08-26T14:34:44.086Z,97837.41
2022-08-26T14:37:47.399Z,97833.70
2022-08-26T14:40:50.454Z,97837.73
2022-08-26T14:44:00.153Z,97837.88
2022-08-26T14:47:09.849Z,97834.35
2022-08-26T14:50:15.169Z,97834.98
2022-08-26T14:53:36.829Z,97829.89
2022-08-26T14:56:42.760Z,97830.90
2022-08-26T14:59:50.104Z,97830.60
2022-08-26T15:02:53.390Z,97833.69
2022-08-26T15:05:58.413Z,97829.50
2022-08-26T15:09:04.590Z,97833.87
2022-08-26T15:12:07.699Z,97832.23
2022-08-26T15:15:17.362Z,97830.30
2022-08-26T15:18:20.747Z,97830.48
2022-08-26T15:21:25.212Z,97832.94
2022-08-26T15:24:29.116Z,97836.06
2022-08-26T15:27:32.614Z,97830.44
2022-08-26T15:30:35.778Z,97834.07
2022-08-26T15:33:39.448Z,97838.48
2022-08-26T15:36:44.815Z,97839.44
2022-08-26T15:39:47.994Z,97840.65
2022-08-26T15:42:57.557Z,97842.84
2022-08-26T15:46:05.122Z,97842.01
2022-08-26T15:49:08.668Z,97840.95
2022-08-26T15:52:21.253Z,97843.74
2022-08-26T15:55:26.665Z,97845.70
2022-08-26T15:58:32.330Z,97842.59
2022-08-26T16:01:36.396Z,97843.48
2022-08-26T16:04:39.373Z,97838.56
2022-08-26T16:07:42.323Z,97839.45
2022-08-26T16:10:50.289Z,97837.20
2022-08-26T16:13:54.000Z,97831.87
2022-08-26T16:16:59.967Z,97830.13
2022-08-26T16:20:03.973Z,97823.85
2022-08-26T16:23:07.493Z,97819.49
2022-08-26T16:26:15.155Z,97815.96
2022-08-26T16:29:18.617Z,97811.77
2022-08-26T16:32:21.526Z,97808.79
2022-08-26T16:35:27.646Z,97806.34
2022-08-26T16:38:30.781Z,97805.27
2022-08-26T16:41:35.118Z,97801.66
2022-08-26T16:44:45.115Z,97796.61
2022-08-26T16:47:49.158Z,97795.34
2022-08-26T16:50:54.468Z,97794.20
2022-08-26T16:53:59.075Z,97791.80
2022-08-26T16:57:02.710Z,97788.95
2022-08-26T17:00:10.505Z,97788.23
2022-08-26T17:03:13.624Z,97785.20
2022-08-26T17:06:17.214Z,97783.14
2022-08-26T17:09:20.846Z,97781.66
2022-08-26T17:12:23.838Z,97781.04
2022-08-26T17:15:26.983Z,97777.38
2022-08-26T17:18:30.413Z,97773.62
2022-08-26T17:21:35.474Z,97773.67
2022-08-26T17:24:39.368Z,97767.00
2022-08-26T17:27:42.827Z,97763.85
2022-08-26T17:30:46.029Z,97764.95
2022-08-26T17:33:53.673Z,97762.33
2022-08-26T17:36:57.188Z,97762.94
2022-08-26T17:40:00.397Z,97763.11
2022-08-26T17:43:03.536Z,97764.17
2022-08-26T17:46:08.859Z,97764.88
2022-08-26T17:49:12.269Z,97762.91
2022-08-26T17:52:15.324Z,97762.28
2022-08-26T17:55:19.268Z,97766.73
2022-08-26T17:58:23.747Z,97768.60
2022-08-26T18:01:28.190Z,97765.46
2022-08-26T18:04:31.498Z,97767.59
2022-08-26T18:07:37.736Z,97769.30
2022-08-26T18:10:47.911Z,97771.95
2022-08-26T18:13:51.424Z,97770.23
2022-08-26T18:16:54.308Z,97770.21
2022-08-26T18:19:57.921Z,97772.24
2022-08-26T18:23:00.955Z,97775.27
2022-08-26T18:26:04.071Z,97777.45
2022-08-26T18:29:08.120Z,97781.83
2022-08-26T18:32:11.138Z,97785.03
2022-08-26T18:35:14.507Z,97789.23
2022-08-26T18:38:17.747Z,97790.38
2022-08-26T18:41:24.340Z,97787.56
2022-08-26T18:44:27.308Z,97785.61
2022-08-26T18:47:32.032Z,97784.73
2022-08-26T18:50:39.823Z,97779.02
2022-08-26T18:53:43.055Z,97781.21
2022-08-26T18:56:46.313Z,97783.73
2022-08-26T18:59:49.402Z,97786.25
2022-08-26T19:02:52.445Z,97786.57
2022-08-26T19:05:59.204Z,97788.68
2022-08-26T19:09:06.666Z,97783.79
2022-08-26T19:12:11.960Z,97786.52
2022-08-26T19:15:15.314Z,97788.53
2022-08-26T19:18:19.556Z,97790.44
2022-08-26T19:21:23.088Z,97788.36
2022-08-26T19:24:28.305Z,97788.98
2022-08-26T19:27:32.373Z,97791.16
2022-08-26T19:30:43.860Z,97794.65
2022-08-26T19:33:46.981Z,97800.65
2022-08-26T19:36:53.171Z,97797.86
2022-08-26T19:39:56.248Z,97799.88
2022-08-26T19:42:59.375Z,97802.48
2022-08-26T19:46:09.568Z,97804.34
2022-08-26T19:49:12.568Z,97807.27
2022-08-26T19:52:15.647Z,97811.77
2022-08-26T19:55:20.819Z,97815.47
2022-08-26T19:58:24.283Z,97819.70
2022-08-26T20:01:27.438Z,97824.36
2022-08-26T20:04:32.096Z,97826.34
2022-08-26T20:07:35.216Z,97825.84
2022-08-26T20:10:38.237Z,97829.65
2022-08-26T20:13:46.791Z,97824.69
2022-08-26T20:16:50.105Z,97824.08
2022-08-26T20:20:14.755Z,97827.14
2022-08-26T20:23:36.617Z,97827.80
2022-08-26T20:26:41.635Z,97826.13
2022-08-26T20:29:46.329Z,97826.42
2022-08-26T20:32:51.330Z,97823.14
2022-08-26T20:35:54.963Z,97828.80
2022-08-26T20:38:58.801Z,97830.07
2022-08-26T20:42:06.801Z,97838.10
2022-08-26T20:45:24.237Z,97836.80
2022-08-26T20:48:34.829Z,97842.99
2022-08-26T20:51:38.567Z,97842.19
2022-08-26T20:54:44.039Z,97843.08
2022-08-26T20:57:48.774Z,97842.76
2022-08-26T21:00:57.893Z,97839.20
2022-08-26T21:04:07.102Z,97835.81
2022-08-26T21:07:10.248Z,97831.36
2022-08-26T21:10:15.817Z,97829.73
2022-08-26T21:13:19.436Z,97830.58
2022-08-26T21:16:22.646Z,97828.89
2022-08-26T21:19:27.075Z,97827.33
2022-08-26T21:22:30.067Z,97830.07
2022-08-26T21:25:33.345Z,97829.35
2022-08-26T21:28:38.605Z,97828.13
2022-08-26T21:31:46.118Z,97829.61
2022-08-26T21:34:50.081Z,97834.58
2022-08-26T21:37:53.012Z,97836.09
2022-08-26T21:41:01.555Z,97826.98
2022-08-26T21:44:04.526Z,97829.98
2022-08-26T21:47:07.508Z,97824.20
2022-08-26T21:50:10.957Z,97822.30
2022-08-26T21:53:15.556Z,97822.59
2022-08-26T21:56:21.000Z,97821.55
2022-08-26T21:59:24.696Z,97822.59
2022-08-26T22:02:27.650Z,97822.60
2022-08-26T22:05:30.602Z,97820.17
2022-08-26T22:08:33.640Z,97821.30
2022-08-26T22:11:36.862Z,97817.95
2022-08-26T22:14:39.963Z,97816.06
2022-08-26T22:17:42.926Z,97812.52
2022-08-26T22:20:45.856Z,97807.15
2022-08-26T22:23:48.875Z,97794.78
2022-08-26T22:26:52.227Z,97789.42
2022-08-26T22:29:55.164Z,97786.55
2022-08-26T22:32:58.267Z,97781.27
2022-08-26T22:36:01.230Z,97779.58
2022-08-26T22:39:05.046Z,97781.14
2022-08-26T22:42:08.031Z,97783.65
2022-08-26T22:45:12.233Z,97784.42
2022-08-26T22:48:20.025Z,97780.57
2022-08-26T22:51:23.216Z,97779.86
2022-08-26T22:54:26.179Z,97778.86
2022-08-26T22:57:29.117Z,97775.36
2022-08-26T23:00:32.632Z,97774.50
2022-08-26T23:03:35.907Z,97768.92
2022-08-26T23:06:41.385Z,97767.42
2022-08-26T23:09:44.364Z,97771.41
2022-08-26T23:12:47.310Z,97775.23
2022-08-26T23:16:00.249Z,97771.30
2022-08-26T23:19:04.678Z,97770.61
2022-08-26T23:22:07.686Z,97767.89
2022-08-26T23:25:11.057Z,97764.63
2022-08-26T23:28:14.037Z,97764.75
2022-08-26T23:31:17.049Z,97764.29
2022-08-26T23:34:38.932Z,97764.95
2022-08-26T23:37:44.886Z,97762.83
2022-08-26T23:40:49.072Z,97760.02
2022-08-26T23:43:52.244Z,97759.64
2022-08-26T23:46:55.361Z,97758.17
2022-08-26T23:49:58.507Z,97757.05
2022-08-26T23:53:08.772Z,97756.60
2022-08-26T23:56:16.131Z,97756.89
2022-08-26T23:59:19.281Z,97756.40
